JST611 YSSY-YMAV
Flight info
| Callsign | JST611 |
|---|---|
| Flight time | 1h 13m |
| Altitude | 34000 |
| Route | TESAT H65 LEECE Q29 ML W15 AV |
| Aircraft | A321/M-S/L |
Departure
| Time | 2026-04-21 10:06 |
|---|---|
| Airport | Sydney Kingsford Smith International Airport (YSSY) |
Arrival
| Time | 2026-04-21 11:19 |
|---|---|
| Airport | Melbourne Avalon International Airport (YMAV) |
| Time | Latitude | Longitude | Altitude | Speed | Heading |
|---|---|---|---|---|---|
| 2026-04-21 09:14 | -33.93462 | 151.17699 | 30 ft | 0 kts | 99° |
| 2026-04-21 09:53 | -33.93459 | 151.17680 | 30 ft | 2 kts | 100° |
| 2026-04-21 09:53 | -33.93457 | 151.17660 | 30 ft | 2 kts | 99° |
| 2026-04-21 09:53 | -33.93454 | 151.17640 | 30 ft | 2 kts | 100° |
| 2026-04-21 09:53 | -33.93454 | 151.17621 | 30 ft | 2 kts | 57° |
| 2026-04-21 09:54 | -33.93464 | 151.17605 | 30 ft | 2 kts | 36° |
| 2026-04-21 09:54 | -33.93478 | 151.17595 | 30 ft | 2 kts | 17° |
| 2026-04-21 09:54 | -33.93495 | 151.17590 | 30 ft | 2 kts | 4° |
| 2026-04-21 09:54 | -33.93511 | 151.17592 | 30 ft | 2 kts | 348° |
| 2026-04-21 09:55 | -33.93524 | 151.17595 | 30 ft | 1 kts | 347° |
| 2026-04-21 09:59 | -33.93514 | 151.17592 | 30 ft | 3 kts | 347° |
| 2026-04-21 09:59 | -33.93482 | 151.17583 | 30 ft | 6 kts | 345° |
| 2026-04-21 09:59 | -33.93461 | 151.17543 | 30 ft | 8 kts | 272° |
| 2026-04-21 10:00 | -33.93474 | 151.17465 | 29 ft | 11 kts | 258° |
| 2026-04-21 10:00 | -33.93481 | 151.17426 | 29 ft | 1 kts | 258° |
| 2026-04-21 10:00 | -33.93481 | 151.17425 | 29 ft | 0 kts | 258° |
| 2026-04-21 10:04 | -33.93481 | 151.17423 | 29 ft | 1 kts | 258° |
| 2026-04-21 10:04 | -33.93488 | 151.17386 | 28 ft | 8 kts | 258° |
| 2026-04-21 10:05 | -33.93517 | 151.17317 | 27 ft | 10 kts | 205° |
| 2026-04-21 10:05 | -33.93608 | 151.17333 | 27 ft | 27 kts | 168° |
| 2026-04-21 10:05 | -33.94033 | 151.17444 | 26 ft | 96 kts | 168° |
| 2026-04-21 10:05 | -33.94873 | 151.17662 | 30 ft | 149 kts | 168° |
| 2026-04-21 10:06 | -33.95956 | 151.17885 | 492 ft | 155 kts | 176° |
| 2026-04-21 10:06 | -33.97023 | 151.17870 | 1190 ft | 153 kts | 182° |
| 2026-04-21 10:06 | -33.98090 | 151.17801 | 1822 ft | 156 kts | 181° |
| 2026-04-21 10:06 | -33.99235 | 151.17724 | 2059 ft | 175 kts | 182° |
| 2026-04-21 10:07 | -34.00531 | 151.17641 | 2232 ft | 197 kts | 181° |
| 2026-04-21 10:07 | -34.01987 | 151.17550 | 2368 ft | 222 kts | 181° |
| 2026-04-21 10:07 | -34.03576 | 151.17788 | 2761 ft | 238 kts | 165° |
| 2026-04-21 10:07 | -34.05195 | 151.18325 | 3442 ft | 243 kts | 165° |
| 2026-04-21 10:08 | -34.06832 | 151.18872 | 4152 ft | 246 kts | 165° |
| 2026-04-21 10:08 | -34.08495 | 151.19426 | 4904 ft | 249 kts | 165° |
| 2026-04-21 10:08 | -34.10174 | 151.19986 | 5640 ft | 251 kts | 165° |
| 2026-04-21 10:08 | -34.11845 | 151.20544 | 6349 ft | 254 kts | 165° |
| 2026-04-21 10:09 | -34.13561 | 151.21117 | 7041 ft | 257 kts | 164° |
| 2026-04-21 10:09 | -34.15296 | 151.21697 | 7703 ft | 260 kts | 164° |
| 2026-04-21 10:09 | -34.17057 | 151.22281 | 8376 ft | 263 kts | 166° |
| 2026-04-21 10:09 | -34.18889 | 151.22457 | 9024 ft | 269 kts | 185° |
| 2026-04-21 10:10 | -34.20696 | 151.21821 | 9655 ft | 276 kts | 205° |
| 2026-04-21 10:10 | -34.22236 | 151.20385 | 10279 ft | 286 kts | 224° |
| 2026-04-21 10:10 | -34.23597 | 151.18517 | 10522 ft | 305 kts | 226° |
| 2026-04-21 10:10 | -34.24998 | 151.16546 | 11027 ft | 311 kts | 226° |
| 2026-04-21 10:11 | -34.26408 | 151.14547 | 11645 ft | 314 kts | 226° |
| 2026-04-21 10:11 | -34.27830 | 151.12528 | 12292 ft | 316 kts | 226° |
| 2026-04-21 10:11 | -34.29263 | 151.10497 | 12935 ft | 318 kts | 226° |
| 2026-04-21 10:11 | -34.30687 | 151.08481 | 13568 ft | 320 kts | 227° |
| 2026-04-21 10:12 | -34.32143 | 151.06424 | 14194 ft | 323 kts | 227° |
| 2026-04-21 10:12 | -34.33613 | 151.04351 | 14751 ft | 325 kts | 227° |
| 2026-04-21 10:12 | -34.35095 | 151.02265 | 15309 ft | 328 kts | 227° |
| 2026-04-21 10:12 | -34.36585 | 151.00164 | 15876 ft | 330 kts | 226° |
| 2026-04-21 10:13 | -34.38207 | 150.98183 | 16277 ft | 336 kts | 220° |
| 2026-04-21 10:13 | -34.39987 | 150.96240 | 16403 ft | 352 kts | 219° |
| 2026-04-21 10:13 | -34.41836 | 150.94239 | 16744 ft | 360 kts | 219° |
| 2026-04-21 10:13 | -34.43716 | 150.92210 | 17242 ft | 364 kts | 219° |
| 2026-04-21 10:14 | -34.45612 | 150.90162 | 17800 ft | 366 kts | 219° |
| 2026-04-21 10:14 | -34.47517 | 150.88100 | 18347 ft | 369 kts | 219° |
| 2026-04-21 10:14 | -34.49414 | 150.86045 | 18864 ft | 371 kts | 219° |
| 2026-04-21 10:14 | -34.51340 | 150.83950 | 19336 ft | 373 kts | 219° |
| 2026-04-21 10:15 | -34.53273 | 150.81842 | 19817 ft | 375 kts | 219° |
| 2026-04-21 10:15 | -34.55214 | 150.79703 | 20302 ft | 378 kts | 223° |
| 2026-04-21 10:15 | -34.56920 | 150.77260 | 20772 ft | 383 kts | 231° |
| 2026-04-21 10:15 | -34.58489 | 150.74639 | 21282 ft | 384 kts | 231° |
| 2026-04-21 10:16 | -34.60066 | 150.72013 | 21759 ft | 387 kts | 231° |
| 2026-04-21 10:16 | -34.61655 | 150.69369 | 22210 ft | 389 kts | 231° |
| 2026-04-21 10:16 | -34.63255 | 150.66710 | 22655 ft | 391 kts | 231° |
| 2026-04-21 10:16 | -34.64869 | 150.64033 | 23099 ft | 393 kts | 231° |
| 2026-04-21 10:17 | -34.66485 | 150.61353 | 23533 ft | 395 kts | 231° |
| 2026-04-21 10:17 | -34.68094 | 150.58689 | 23946 ft | 397 kts | 231° |
| 2026-04-21 10:17 | -34.69735 | 150.55974 | 24305 ft | 399 kts | 231° |
| 2026-04-21 10:17 | -34.71381 | 150.53248 | 24663 ft | 401 kts | 231° |
| 2026-04-21 10:18 | -34.73030 | 150.50508 | 25023 ft | 402 kts | 231° |
| 2026-04-21 10:18 | -34.74686 | 150.47751 | 25378 ft | 404 kts | 231° |
| 2026-04-21 10:18 | -34.76342 | 150.44986 | 25723 ft | 405 kts | 231° |
| 2026-04-21 10:18 | -34.78002 | 150.42206 | 26070 ft | 407 kts | 231° |
| 2026-04-21 10:19 | -34.79674 | 150.39407 | 26418 ft | 408 kts | 231° |
| 2026-04-21 10:19 | -34.81326 | 150.36644 | 26757 ft | 410 kts | 231° |
| 2026-04-21 10:19 | -34.83003 | 150.33832 | 27098 ft | 411 kts | 231° |
| 2026-04-21 10:19 | -34.84688 | 150.31003 | 27433 ft | 413 kts | 231° |
| 2026-04-21 10:20 | -34.86384 | 150.28156 | 27768 ft | 415 kts | 231° |
| 2026-04-21 10:20 | -34.88086 | 150.25295 | 28108 ft | 417 kts | 231° |
| 2026-04-21 10:20 | -34.89790 | 150.22433 | 28428 ft | 418 kts | 231° |
| 2026-04-21 10:20 | -34.91500 | 150.19561 | 28732 ft | 420 kts | 231° |
| 2026-04-21 10:21 | -34.93222 | 150.16670 | 29036 ft | 421 kts | 231° |
| 2026-04-21 10:21 | -34.94944 | 150.13774 | 29332 ft | 423 kts | 231° |
| 2026-04-21 10:21 | -34.96649 | 150.10900 | 29617 ft | 425 kts | 231° |
| 2026-04-21 10:21 | -34.98381 | 150.07978 | 29910 ft | 426 kts | 231° |
| 2026-04-21 10:22 | -35.00121 | 150.05038 | 30206 ft | 428 kts | 231° |
| 2026-04-21 10:22 | -35.01865 | 150.02084 | 30498 ft | 430 kts | 231° |
| 2026-04-21 10:22 | -35.03613 | 149.99120 | 30745 ft | 431 kts | 231° |
| 2026-04-21 10:22 | -35.05361 | 149.96153 | 31100 ft | 430 kts | 231° |
| 2026-04-21 10:23 | -35.07102 | 149.93199 | 31451 ft | 428 kts | 231° |
| 2026-04-21 10:23 | -35.08841 | 149.90250 | 31796 ft | 427 kts | 231° |
| 2026-04-21 10:23 | -35.10579 | 149.87305 | 32131 ft | 426 kts | 231° |
| 2026-04-21 10:23 | -35.12309 | 149.84372 | 32470 ft | 425 kts | 231° |
| 2026-04-21 10:24 | -35.14035 | 149.81439 | 32794 ft | 424 kts | 231° |
| 2026-04-21 10:24 | -35.15754 | 149.78515 | 33140 ft | 423 kts | 231° |
| 2026-04-21 10:24 | -35.17466 | 149.75595 | 33461 ft | 422 kts | 231° |
| 2026-04-21 10:24 | -35.19173 | 149.72678 | 33779 ft | 421 kts | 231° |
| 2026-04-21 10:25 | -35.20879 | 149.69766 | 34084 ft | 420 kts | 231° |
| 2026-04-21 10:25 | -35.22582 | 149.66856 | 34352 ft | 420 kts | 231° |
| 2026-04-21 10:25 | -35.24277 | 149.63962 | 34429 ft | 417 kts | 231° |
| 2026-04-21 10:26 | -35.27621 | 149.58252 | 34413 ft | 414 kts | 231° |
| 2026-04-21 10:26 | -35.30425 | 149.53447 | 34426 ft | 414 kts | 231° |
| 2026-04-21 10:27 | -35.33751 | 149.47745 | 34406 ft | 414 kts | 231° |
| 2026-04-21 10:27 | -35.37092 | 149.42009 | 34414 ft | 414 kts | 231° |
| 2026-04-21 10:28 | -35.40437 | 149.36260 | 34408 ft | 414 kts | 231° |
| 2026-04-21 10:28 | -35.43775 | 149.30491 | 34408 ft | 414 kts | 231° |
| 2026-04-21 10:29 | -35.47110 | 149.24720 | 34404 ft | 414 kts | 231° |
| 2026-04-21 10:29 | -35.50424 | 149.18996 | 34407 ft | 414 kts | 231° |
| 2026-04-21 10:30 | -35.53758 | 149.13228 | 34414 ft | 414 kts | 231° |
| 2026-04-21 10:30 | -35.57081 | 149.07446 | 34418 ft | 414 kts | 231° |
| 2026-04-21 10:31 | -35.60402 | 149.01663 | 34424 ft | 414 kts | 231° |
| 2026-04-21 10:31 | -35.63734 | 148.95873 | 34422 ft | 414 kts | 231° |
| 2026-04-21 10:32 | -35.67055 | 148.90084 | 34420 ft | 414 kts | 231° |
| 2026-04-21 10:32 | -35.70375 | 148.84285 | 34421 ft | 414 kts | 231° |
| 2026-04-21 10:33 | -35.73691 | 148.78481 | 34416 ft | 414 kts | 231° |
| 2026-04-21 10:33 | -35.77002 | 148.72670 | 34414 ft | 415 kts | 231° |
| 2026-04-21 10:34 | -35.80289 | 148.66899 | 34418 ft | 414 kts | 231° |
| 2026-04-21 10:34 | -35.83600 | 148.61087 | 34410 ft | 415 kts | 231° |
| 2026-04-21 10:35 | -35.86905 | 148.55249 | 34411 ft | 415 kts | 231° |
| 2026-04-21 10:35 | -35.90211 | 148.49410 | 34407 ft | 415 kts | 232° |
| 2026-04-21 10:36 | -35.93509 | 148.43556 | 34396 ft | 415 kts | 232° |
| 2026-04-21 10:36 | -35.96797 | 148.37695 | 34396 ft | 415 kts | 232° |
| 2026-04-21 10:37 | -36.00088 | 148.31829 | 34390 ft | 415 kts | 232° |
| 2026-04-21 10:37 | -36.03375 | 148.25974 | 34385 ft | 415 kts | 232° |
| 2026-04-21 10:38 | -36.06638 | 148.20147 | 34378 ft | 415 kts | 232° |
| 2026-04-21 10:38 | -36.09926 | 148.14272 | 34377 ft | 415 kts | 232° |
| 2026-04-21 10:39 | -36.13203 | 148.08393 | 34372 ft | 415 kts | 232° |
| 2026-04-21 10:39 | -36.16484 | 148.02510 | 34376 ft | 415 kts | 232° |
| 2026-04-21 10:40 | -36.19748 | 147.96668 | 34373 ft | 415 kts | 232° |
| 2026-04-21 10:40 | -36.23039 | 147.90785 | 34368 ft | 415 kts | 232° |
| 2026-04-21 10:41 | -36.26324 | 147.84894 | 34371 ft | 415 kts | 232° |
| 2026-04-21 10:41 | -36.29595 | 147.78986 | 34369 ft | 416 kts | 232° |
| 2026-04-21 10:42 | -36.32867 | 147.73065 | 34366 ft | 416 kts | 232° |
| 2026-04-21 10:42 | -36.36141 | 147.67144 | 34366 ft | 416 kts | 233° |
| 2026-04-21 10:43 | -36.39412 | 147.61216 | 34370 ft | 417 kts | 233° |
| 2026-04-21 10:43 | -36.42660 | 147.55321 | 34374 ft | 417 kts | 233° |
| 2026-04-21 10:44 | -36.45931 | 147.49378 | 34374 ft | 417 kts | 233° |
| 2026-04-21 10:44 | -36.49194 | 147.43416 | 34361 ft | 417 kts | 233° |
| 2026-04-21 10:45 | -36.52452 | 147.37446 | 34362 ft | 417 kts | 233° |
| 2026-04-21 10:45 | -36.55720 | 147.31468 | 34366 ft | 417 kts | 233° |
| 2026-04-21 10:46 | -36.58950 | 147.25525 | 34366 ft | 417 kts | 233° |
| 2026-04-21 10:46 | -36.62214 | 147.19539 | 34355 ft | 417 kts | 233° |
| 2026-04-21 10:47 | -36.65474 | 147.13556 | 34359 ft | 418 kts | 233° |
| 2026-04-21 10:47 | -36.68718 | 147.07560 | 34359 ft | 417 kts | 233° |
| 2026-04-21 10:48 | -36.71960 | 147.01555 | 34365 ft | 418 kts | 233° |
| 2026-04-21 10:48 | -36.75210 | 146.95558 | 34363 ft | 417 kts | 233° |
| 2026-04-21 10:49 | -36.78464 | 146.89562 | 34364 ft | 417 kts | 233° |
| 2026-04-21 10:49 | -36.81705 | 146.83555 | 34361 ft | 417 kts | 233° |
| 2026-04-21 10:50 | -36.84937 | 146.77531 | 34364 ft | 417 kts | 233° |
| 2026-04-21 10:50 | -36.88144 | 146.71547 | 34360 ft | 417 kts | 233° |
| 2026-04-21 10:51 | -36.91377 | 146.65525 | 34362 ft | 417 kts | 233° |
| 2026-04-21 10:51 | -36.94607 | 146.59502 | 34364 ft | 417 kts | 233° |
| 2026-04-21 10:52 | -36.97832 | 146.53458 | 34369 ft | 417 kts | 234° |
| 2026-04-21 10:52 | -37.01050 | 146.47408 | 34366 ft | 417 kts | 234° |
| 2026-04-21 10:53 | -37.04259 | 146.41357 | 34368 ft | 417 kts | 234° |
| 2026-04-21 10:53 | -37.07472 | 146.35310 | 34370 ft | 417 kts | 234° |
| 2026-04-21 10:54 | -37.10687 | 146.29258 | 34394 ft | 418 kts | 236° |
| 2026-04-21 10:54 | -37.13914 | 146.23172 | 34344 ft | 420 kts | 236° |
| 2026-04-21 10:55 | -37.17136 | 146.17078 | 34340 ft | 422 kts | 236° |
| 2026-04-21 10:55 | -37.20393 | 146.10892 | 33446 ft | 429 kts | 236° |
| 2026-04-21 10:55 | -37.22035 | 146.07769 | 32885 ft | 427 kts | 236° |
| 2026-04-21 10:56 | -37.23666 | 146.04663 | 32430 ft | 423 kts | 236° |
| 2026-04-21 10:56 | -37.25280 | 146.01589 | 31949 ft | 420 kts | 236° |
| 2026-04-21 10:56 | -37.26880 | 145.98537 | 31480 ft | 416 kts | 236° |
| 2026-04-21 10:56 | -37.28466 | 145.95510 | 31023 ft | 413 kts | 236° |
| 2026-04-21 10:57 | -37.30036 | 145.92514 | 30549 ft | 410 kts | 236° |
| 2026-04-21 10:57 | -37.31603 | 145.89528 | 30047 ft | 407 kts | 236° |
| 2026-04-21 10:57 | -37.33130 | 145.86623 | 29594 ft | 402 kts | 236° |
| 2026-04-21 10:57 | -37.34665 | 145.83703 | 29141 ft | 398 kts | 236° |
| 2026-04-21 10:58 | -37.36177 | 145.80818 | 28707 ft | 393 kts | 236° |
| 2026-04-21 10:58 | -37.37674 | 145.77960 | 28277 ft | 389 kts | 236° |
| 2026-04-21 10:58 | -37.39157 | 145.75129 | 27866 ft | 386 kts | 236° |
| 2026-04-21 10:58 | -37.40628 | 145.72318 | 27455 ft | 383 kts | 236° |
| 2026-04-21 10:59 | -37.42087 | 145.69526 | 27057 ft | 380 kts | 236° |
| 2026-04-21 10:59 | -37.43537 | 145.66750 | 26655 ft | 378 kts | 236° |
| 2026-04-21 10:59 | -37.44897 | 145.63932 | 26257 ft | 376 kts | 243° |
| 2026-04-21 10:59 | -37.45852 | 145.60915 | 25856 ft | 376 kts | 250° |
| 2026-04-21 11:00 | -37.46674 | 145.57802 | 25419 ft | 375 kts | 250° |
| 2026-04-21 11:00 | -37.47501 | 145.54687 | 24974 ft | 374 kts | 250° |
| 2026-04-21 11:00 | -37.48326 | 145.51578 | 24532 ft | 374 kts | 250° |
| 2026-04-21 11:00 | -37.49149 | 145.48480 | 24093 ft | 373 kts | 250° |
| 2026-04-21 11:01 | -37.49974 | 145.45382 | 23619 ft | 372 kts | 250° |
| 2026-04-21 11:01 | -37.50798 | 145.42294 | 23091 ft | 372 kts | 250° |
| 2026-04-21 11:01 | -37.51619 | 145.39210 | 22604 ft | 371 kts | 250° |
| 2026-04-21 11:02 | -37.53241 | 145.33071 | 21623 ft | 368 kts | 250° |
| 2026-04-21 11:02 | -37.54047 | 145.30013 | 21151 ft | 367 kts | 250° |
| 2026-04-21 11:02 | -37.54849 | 145.26966 | 20676 ft | 365 kts | 250° |
| 2026-04-21 11:02 | -37.55648 | 145.23929 | 20209 ft | 364 kts | 250° |
| 2026-04-21 11:03 | -37.56432 | 145.20945 | 19755 ft | 362 kts | 250° |
| 2026-04-21 11:03 | -37.57221 | 145.17938 | 19304 ft | 361 kts | 250° |
| 2026-04-21 11:03 | -37.58009 | 145.14942 | 18866 ft | 359 kts | 250° |
| 2026-04-21 11:03 | -37.58791 | 145.11961 | 18399 ft | 357 kts | 251° |
| 2026-04-21 11:04 | -37.59568 | 145.08994 | 17893 ft | 356 kts | 251° |
| 2026-04-21 11:04 | -37.60342 | 145.06038 | 17403 ft | 354 kts | 251° |
| 2026-04-21 11:04 | -37.61114 | 145.03089 | 16919 ft | 352 kts | 251° |
| 2026-04-21 11:04 | -37.61881 | 145.00167 | 16438 ft | 350 kts | 250° |
| 2026-04-21 11:05 | -37.63001 | 144.97480 | 15962 ft | 346 kts | 230° |
| 2026-04-21 11:05 | -37.64809 | 144.95530 | 15501 ft | 342 kts | 208° |
| 2026-04-21 11:05 | -37.67048 | 144.94599 | 15045 ft | 340 kts | 187° |
| 2026-04-21 11:05 | -37.69397 | 144.94410 | 14603 ft | 338 kts | 182° |
| 2026-04-21 11:06 | -37.71745 | 144.94309 | 14161 ft | 337 kts | 184° |
| 2026-04-21 11:06 | -37.74019 | 144.93689 | 13664 ft | 334 kts | 203° |
| 2026-04-21 11:06 | -37.75974 | 144.92144 | 13193 ft | 332 kts | 223° |
| 2026-04-21 11:06 | -37.77372 | 144.89867 | 12782 ft | 328 kts | 243° |
| 2026-04-21 11:07 | -37.78080 | 144.87154 | 12383 ft | 325 kts | 262° |
| 2026-04-21 11:07 | -37.78273 | 144.84348 | 11987 ft | 323 kts | 265° |
| 2026-04-21 11:07 | -37.78435 | 144.81531 | 11600 ft | 320 kts | 265° |
| 2026-04-21 11:07 | -37.78593 | 144.78739 | 11210 ft | 317 kts | 265° |
| 2026-04-21 11:08 | -37.78747 | 144.76005 | 10811 ft | 304 kts | 265° |
| 2026-04-21 11:08 | -37.78894 | 144.73400 | 10430 ft | 288 kts | 265° |
| 2026-04-21 11:08 | -37.79034 | 144.70923 | 10054 ft | 281 kts | 265° |
| 2026-04-21 11:08 | -37.79176 | 144.68460 | 9633 ft | 281 kts | 265° |
| 2026-04-21 11:09 | -37.79316 | 144.65995 | 9224 ft | 282 kts | 265° |
| 2026-04-21 11:09 | -37.79454 | 144.63515 | 8814 ft | 282 kts | 265° |
| 2026-04-21 11:09 | -37.79591 | 144.61037 | 8404 ft | 283 kts | 265° |
| 2026-04-21 11:09 | -37.79729 | 144.58560 | 8013 ft | 283 kts | 265° |
| 2026-04-21 11:10 | -37.79869 | 144.56081 | 7610 ft | 283 kts | 265° |
| 2026-04-21 11:10 | -37.80309 | 144.53675 | 7213 ft | 282 kts | 245° |
| 2026-04-21 11:10 | -37.81433 | 144.51679 | 6817 ft | 276 kts | 223° |
| 2026-04-21 11:10 | -37.83015 | 144.50431 | 6411 ft | 264 kts | 200° |
| 2026-04-21 11:11 | -37.84791 | 144.50206 | 6054 ft | 254 kts | 171° |
| 2026-04-21 11:11 | -37.86514 | 144.50729 | 6008 ft | 256 kts | 167° |
| 2026-04-21 11:11 | -37.88247 | 144.51281 | 5808 ft | 256 kts | 168° |
| 2026-04-21 11:11 | -37.89948 | 144.51820 | 5610 ft | 255 kts | 167° |
| 2026-04-21 11:12 | -37.91691 | 144.52371 | 5408 ft | 255 kts | 167° |
| 2026-04-21 11:12 | -37.93391 | 144.52910 | 5213 ft | 254 kts | 167° |
| 2026-04-21 11:12 | -37.95092 | 144.53450 | 5011 ft | 249 kts | 167° |
| 2026-04-21 11:12 | -37.96752 | 144.53978 | 4806 ft | 244 kts | 167° |
| 2026-04-21 11:13 | -37.98392 | 144.54499 | 4597 ft | 243 kts | 167° |
| 2026-04-21 11:13 | -38.00030 | 144.55022 | 4422 ft | 243 kts | 167° |
| 2026-04-21 11:13 | -38.01649 | 144.55540 | 4267 ft | 236 kts | 167° |
| 2026-04-21 11:13 | -38.03228 | 144.56046 | 4104 ft | 233 kts | 166° |
| 2026-04-21 11:14 | -38.04798 | 144.56551 | 3925 ft | 232 kts | 166° |
| 2026-04-21 11:14 | -38.06361 | 144.57053 | 3753 ft | 232 kts | 166° |
| 2026-04-21 11:14 | -38.07945 | 144.57363 | 3489 ft | 230 kts | 182° |
| 2026-04-21 11:14 | -38.09503 | 144.57006 | 3266 ft | 224 kts | 202° |
| 2026-04-21 11:15 | -38.10895 | 144.56208 | 3079 ft | 215 kts | 211° |
| 2026-04-21 11:15 | -38.12109 | 144.55182 | 2925 ft | 206 kts | 221° |
| 2026-04-21 11:15 | -38.13143 | 144.53966 | 2830 ft | 201 kts | 230° |
| 2026-04-21 11:15 | -38.13957 | 144.52562 | 2635 ft | 201 kts | 247° |
| 2026-04-21 11:16 | -38.14335 | 144.50868 | 2328 ft | 192 kts | 269° |
| 2026-04-21 11:16 | -38.14245 | 144.49276 | 2049 ft | 176 kts | 288° |
| 2026-04-21 11:16 | -38.13805 | 144.47904 | 1807 ft | 163 kts | 305° |
| 2026-04-21 11:16 | -38.13107 | 144.46818 | 1612 ft | 156 kts | 320° |
| 2026-04-21 11:17 | -38.12222 | 144.46065 | 1406 ft | 151 kts | 337° |
| 2026-04-21 11:17 | -38.11253 | 144.45688 | 1240 ft | 143 kts | 352° |
| 2026-04-21 11:17 | -38.10271 | 144.45654 | 1074 ft | 142 kts | 7° |
| 2026-04-21 11:17 | -38.09290 | 144.45823 | 883 ft | 142 kts | 9° |
| 2026-04-21 11:18 | -38.08311 | 144.45988 | 657 ft | 141 kts | 10° |
| 2026-04-21 11:18 | -38.07327 | 144.46154 | 449 ft | 143 kts | 10° |
| 2026-04-21 11:18 | -38.06334 | 144.46321 | 257 ft | 145 kts | 12° |
| 2026-04-21 11:18 | -38.05671 | 144.46435 | 136 ft | 145 kts | 11° |
| 2026-04-21 11:19 | -38.04704 | 144.46609 | 27 ft | 123 kts | 8° |
| 2026-04-21 11:19 | -38.04125 | 144.46705 | 28 ft | 59 kts | 7° |
| 2026-04-21 11:19 | -38.03783 | 144.46763 | 27 ft | 43 kts | 7° |
| 2026-04-21 11:19 | -38.03485 | 144.46815 | 29 ft | 44 kts | 8° |
| 2026-04-21 11:20 | -38.03176 | 144.46866 | 27 ft | 44 kts | 8° |
| 2026-04-21 11:20 | -38.02934 | 144.46907 | 28 ft | 26 kts | 7° |
| 2026-04-21 11:20 | -38.02787 | 144.46931 | 25 ft | 13 kts | 7° |
| 2026-04-21 11:20 | -38.02734 | 144.46968 | 25 ft | 9 kts | 66° |
| 2026-04-21 11:21 | -38.02737 | 144.47042 | 25 ft | 8 kts | 98° |
| 2026-04-21 11:21 | -38.02747 | 144.47110 | 28 ft | 8 kts | 109° |
| 2026-04-21 11:21 | -38.02777 | 144.47167 | 26 ft | 8 kts | 121° |
| 2026-04-21 11:21 | -38.02789 | 144.47237 | 26 ft | 9 kts | 98° |
| 2026-04-21 11:22 | -38.02791 | 144.47291 | 27 ft | 4 kts | 69° |
| 2026-04-21 11:22 | -38.02757 | 144.47309 | 27 ft | 7 kts | 11° |
| 2026-04-21 11:22 | -38.02728 | 144.47314 | 27 ft | 2 kts | 7° |
| 2026-04-21 11:22 | -38.02727 | 144.47314 | 27 ft | 0 kts | 7° |